createdAt,value
2023-04-24T00:01:01.996Z,11.12
2023-04-24T00:03:30.201Z,11.16
2023-04-24T00:05:56.883Z,11.24
2023-04-24T00:08:24.683Z,11.25
2023-04-24T00:10:51.165Z,11.28
2023-04-24T00:13:17.587Z,11.33
2023-04-24T00:15:44.217Z,11.31
2023-04-24T00:18:10.656Z,11.31
2023-04-24T00:20:37.466Z,11.35
2023-04-24T00:23:03.967Z,11.28
2023-04-24T00:25:30.452Z,11.30
2023-04-24T00:27:56.887Z,11.34
2023-04-24T00:30:23.424Z,11.29
2023-04-24T00:32:49.875Z,11.25
2023-04-24T00:35:16.370Z,11.29
2023-04-24T00:37:42.994Z,11.23
2023-04-24T00:40:09.898Z,11.21
2023-04-24T00:42:36.478Z,11.25
2023-04-24T00:45:04.097Z,11.30
2023-04-24T00:47:31.066Z,11.32
2023-04-24T00:49:57.539Z,11.36
2023-04-24T00:52:25.258Z,11.37
2023-04-24T00:54:51.806Z,11.50
2023-04-24T00:57:18.807Z,11.51
2023-04-24T00:59:45.509Z,11.69
2023-04-24T01:02:12.692Z,11.66
2023-04-24T01:04:39.480Z,11.73
2023-04-24T01:07:11.434Z,11.76
2023-04-24T01:09:40.911Z,11.86
2023-04-24T01:12:07.724Z,11.91
2023-04-24T01:14:34.437Z,11.89
2023-04-24T01:17:01.305Z,11.90
2023-04-24T01:19:28.325Z,11.84
2023-04-24T01:21:59.049Z,11.86
2023-04-24T01:24:25.728Z,11.88
2023-04-24T01:26:52.327Z,11.87
2023-04-24T01:29:18.744Z,11.84
2023-04-24T01:31:45.488Z,11.84
2023-04-24T01:34:12.047Z,11.89
2023-04-24T01:36:38.919Z,11.76
2023-04-24T01:39:05.430Z,11.76
2023-04-24T01:41:32.367Z,11.71
2023-04-24T01:43:59.397Z,11.67
2023-04-24T01:46:26.191Z,11.71
2023-04-24T01:48:53.232Z,11.76
2023-04-24T01:51:19.852Z,11.63
2023-04-24T01:53:46.356Z,11.61
2023-04-24T01:56:12.860Z,11.58
2023-04-24T01:58:39.473Z,11.68
2023-04-24T02:01:07.704Z,11.54
2023-04-24T02:03:34.492Z,11.53
2023-04-24T02:06:01.243Z,11.52
2023-04-24T02:08:27.648Z,11.45
2023-04-24T02:10:54.100Z,11.47
2023-04-24T02:13:20.548Z,11.45
2023-04-24T02:15:47.037Z,11.39
2023-04-24T02:18:13.740Z,11.37
2023-04-24T02:20:40.207Z,11.28
2023-04-24T02:23:06.657Z,11.20
2023-04-24T02:25:34.370Z,11.15
2023-04-24T02:28:00.803Z,11.08
2023-04-24T02:30:27.302Z,11.00
2023-04-24T02:32:53.728Z,10.89
2023-04-24T02:35:20.324Z,10.88
2023-04-24T02:37:46.847Z,10.81
2023-04-24T02:40:13.551Z,10.76
2023-04-24T02:42:39.988Z,10.78
2023-04-24T02:45:06.931Z,10.66
2023-04-24T02:47:33.364Z,10.66
2023-04-24T02:49:59.766Z,10.66
2023-04-24T02:52:26.187Z,10.55
2023-04-24T02:54:52.667Z,10.59
2023-04-24T02:57:19.091Z,10.58
2023-04-24T02:59:45.533Z,10.44
2023-04-24T03:02:12.020Z,10.43
2023-04-24T03:04:38.717Z,10.43
2023-04-24T03:07:05.549Z,10.43
2023-04-24T03:09:32.087Z,10.54
2023-04-24T03:11:59.271Z,10.61
2023-04-24T03:14:25.943Z,10.64
2023-04-24T03:16:52.396Z,10.70
2023-04-24T03:19:18.807Z,10.74
2023-04-24T03:21:45.414Z,10.79
2023-04-24T03:24:11.857Z,10.85
2023-04-24T03:26:38.294Z,10.87
2023-04-24T03:29:04.748Z,10.98
2023-04-24T03:31:31.161Z,10.97
2023-04-24T03:33:57.592Z,10.93
2023-04-24T03:36:24.042Z,11.02
2023-04-24T03:38:50.569Z,11.04
2023-04-24T03:41:17.026Z,11.07
2023-04-24T03:43:43.687Z,11.07
2023-04-24T03:46:10.389Z,11.09
2023-04-24T03:48:36.921Z,11.10
2023-04-24T03:51:03.578Z,11.08
2023-04-24T03:53:30.678Z,11.07
2023-04-24T03:55:57.128Z,11.04
2023-04-24T03:58:23.542Z,11.05
2023-04-24T04:00:50.749Z,11.00
2023-04-24T04:03:17.400Z,11.04
2023-04-24T04:05:43.926Z,11.05
2023-04-24T04:08:10.421Z,11.05
2023-04-24T04:10:36.944Z,11.07
2023-04-24T04:13:03.341Z,11.03
2023-04-24T04:15:30.019Z,11.03
2023-04-24T04:17:56.524Z,11.02
2023-04-24T04:20:23.117Z,10.99
2023-04-24T04:22:49.545Z,11.08
2023-04-24T04:25:15.953Z,11.18
2023-04-24T04:27:42.860Z,11.22
2023-04-24T04:30:10.733Z,11.20
2023-04-24T04:32:37.276Z,11.21
2023-04-24T04:35:04.447Z,11.34
2023-04-24T04:37:32.133Z,11.31
2023-04-24T04:40:02.049Z,11.41
2023-04-24T04:42:29.236Z,11.36
2023-04-24T04:44:57.058Z,11.39
2023-04-24T04:47:24.439Z,11.49
2023-04-24T04:49:52.572Z,11.51
2023-04-24T04:52:19.836Z,11.62
2023-04-24T04:54:47.381Z,11.69
2023-04-24T04:57:14.299Z,11.79
2023-04-24T04:59:42.310Z,11.92
2023-04-24T05:02:09.284Z,12.02
2023-04-24T05:04:35.961Z,12.11
2023-04-24T05:07:02.705Z,12.22
2023-04-24T05:09:30.340Z,12.30
2023-04-24T05:11:57.069Z,12.37
2023-04-24T05:14:23.525Z,12.40
2023-04-24T05:16:50.004Z,12.52
2023-04-24T05:19:16.698Z,12.61
2023-04-24T05:21:43.241Z,12.59
2023-04-24T05:24:09.694Z,12.65
2023-04-24T05:26:36.699Z,12.73
2023-04-24T05:29:03.621Z,12.78
2023-04-24T05:31:30.207Z,12.84
2023-04-24T05:33:56.690Z,12.89
2023-04-24T05:36:23.108Z,12.94
2023-04-24T05:38:49.716Z,13.01
2023-04-24T05:41:16.197Z,13.06
2023-04-24T05:43:42.597Z,13.17
2023-04-24T05:46:09.022Z,13.19
2023-04-24T05:48:35.537Z,13.22
2023-04-24T05:51:01.940Z,13.32
2023-04-24T05:53:28.429Z,13.40
2023-04-24T05:55:54.879Z,13.36
2023-04-24T05:58:21.316Z,13.44
2023-04-24T06:00:47.994Z,13.44
2023-04-24T06:03:14.633Z,13.53
2023-04-24T06:05:41.359Z,13.54
2023-04-24T06:08:07.842Z,13.59
2023-04-24T06:10:34.459Z,13.62
2023-04-24T06:13:01.521Z,13.57
2023-04-24T06:15:31.965Z,13.58
2023-04-24T06:17:58.856Z,13.62
2023-04-24T06:20:25.831Z,13.56
2023-04-24T06:22:52.283Z,13.59
2023-04-24T06:25:19.944Z,13.65
2023-04-24T06:27:46.507Z,13.67
2023-04-24T06:30:13.249Z,13.64
2023-04-24T06:32:39.732Z,13.71
2023-04-24T06:35:08.279Z,13.79
2023-04-24T06:37:34.830Z,13.82
2023-04-24T06:40:01.270Z,13.85
2023-04-24T06:42:27.748Z,13.88
2023-04-24T06:44:54.207Z,13.96
2023-04-24T06:47:20.822Z,13.99
2023-04-24T06:49:47.228Z,14.04
2023-04-24T06:52:13.750Z,14.04
2023-04-24T06:54:40.179Z,14.21
2023-04-24T06:57:06.918Z,14.33
2023-04-24T06:59:33.322Z,14.37
2023-04-24T07:01:59.756Z,14.35
2023-04-24T07:04:26.689Z,14.40
2023-04-24T07:06:56.716Z,14.42
2023-04-24T07:09:24.619Z,14.44
2023-04-24T07:11:51.651Z,14.54
2023-04-24T07:14:18.543Z,14.29
2023-04-24T07:16:46.110Z,14.50
2023-04-24T07:19:14.057Z,14.61
2023-04-24T07:21:40.773Z,14.53
2023-04-24T07:24:10.297Z,14.35
2023-04-24T07:26:36.780Z,14.53
2023-04-24T07:29:03.250Z,14.84
2023-04-24T07:31:30.072Z,15.11
2023-04-24T07:33:58.930Z,15.31
2023-04-24T07:36:26.971Z,15.47
2023-04-24T07:38:53.973Z,15.61
2023-04-24T07:41:21.488Z,15.88
2023-04-24T07:43:48.160Z,15.99
2023-04-24T07:46:14.806Z,16.21
2023-04-24T07:48:41.226Z,16.36
2023-04-24T07:51:07.786Z,16.33
2023-04-24T07:53:34.236Z,16.30
2023-04-24T07:56:00.726Z,16.47
2023-04-24T07:58:27.243Z,16.36
2023-04-24T08:00:53.866Z,16.55
2023-04-24T08:03:21.093Z,16.31
2023-04-24T08:05:47.975Z,16.44
2023-04-24T08:08:14.584Z,16.24
2023-04-24T08:10:41.236Z,16.54
2023-04-24T08:13:07.777Z,16.60
2023-04-24T08:15:34.400Z,16.65
2023-04-24T08:18:01.404Z,16.75
2023-04-24T08:20:27.856Z,16.70
2023-04-24T08:22:55.570Z,16.65
2023-04-24T08:25:24.132Z,16.66
2023-04-24T08:27:50.649Z,16.66
2023-04-24T08:30:17.673Z,16.56
2023-04-24T08:32:44.276Z,16.42
2023-04-24T08:35:11.207Z,16.48
2023-04-24T08:37:38.099Z,16.62
2023-04-24T08:40:11.341Z,16.61
2023-04-24T08:42:38.673Z,16.49
2023-04-24T08:45:06.378Z,16.28
2023-04-24T08:47:34.642Z,16.44
2023-04-24T08:50:03.774Z,16.44
2023-04-24T08:52:30.539Z,16.46
2023-04-24T08:54:57.548Z,16.49
2023-04-24T08:57:25.437Z,16.48
2023-04-24T08:59:52.246Z,16.31
2023-04-24T09:02:19.253Z,16.45
2023-04-24T09:04:48.113Z,16.43
2023-04-24T09:07:17.686Z,16.43
2023-04-24T09:09:44.990Z,16.43
2023-04-24T09:12:12.552Z,16.43
2023-04-24T09:14:43.506Z,16.45
2023-04-24T09:17:10.093Z,16.42
2023-04-24T09:19:36.672Z,16.35
2023-04-24T09:22:07.283Z,16.25
2023-04-24T09:24:36.043Z,16.26
2023-04-24T09:27:03.064Z,16.08
2023-04-24T09:29:29.702Z,16.32
2023-04-24T09:31:56.862Z,16.38
2023-04-24T09:34:25.989Z,16.54
2023-04-24T09:36:52.989Z,16.72
2023-04-24T09:39:22.889Z,16.85
2023-04-24T09:41:53.743Z,17.03
2023-04-24T09:44:21.953Z,17.06
2023-04-24T09:46:59.644Z,17.16
2023-04-24T09:49:27.005Z,17.27
2023-04-24T09:52:06.978Z,17.26
2023-04-24T09:54:34.185Z,17.23
2023-04-24T09:57:03.567Z,17.29
2023-04-24T09:59:30.845Z,17.44
2023-04-24T10:01:59.545Z,17.54
2023-04-24T10:04:28.042Z,17.59
2023-04-24T10:06:56.866Z,17.48
2023-04-24T10:09:25.743Z,17.54
2023-04-24T10:11:54.400Z,17.47
2023-04-24T10:14:26.249Z,17.31
2023-04-24T10:16:57.374Z,17.51
2023-04-24T10:19:26.757Z,17.49
2023-04-24T10:21:53.989Z,17.50
2023-04-24T10:24:23.371Z,17.50
2023-04-24T10:26:50.200Z,17.49
2023-04-24T10:29:19.207Z,17.60
2023-04-24T10:31:49.154Z,17.39
2023-04-24T10:34:19.069Z,17.13
2023-04-24T10:36:58.392Z,17.32
2023-04-24T10:39:27.305Z,17.64
2023-04-24T10:41:54.940Z,17.27
2023-04-24T10:44:23.383Z,17.25
2023-04-24T10:46:55.693Z,17.33
2023-04-24T10:49:32.790Z,16.78
2023-04-24T10:52:06.557Z,16.53
2023-04-24T10:54:47.072Z,16.36
2023-04-24T10:57:19.566Z,15.78
2023-04-24T10:59:47.240Z,15.97
2023-04-24T11:02:17.603Z,15.95
2023-04-24T11:04:46.058Z,15.67
2023-04-24T11:07:13.116Z,15.59
2023-04-24T11:09:41.894Z,15.44
2023-04-24T11:12:11.850Z,15.64
2023-04-24T11:14:56.409Z,15.63
2023-04-24T11:17:34.332Z,15.69
2023-04-24T11:20:26.679Z,15.54
2023-04-24T11:22:55.784Z,15.58
2023-04-24T11:25:26.084Z,15.63
2023-04-24T11:28:04.686Z,15.70
2023-04-24T11:30:32.697Z,15.73
2023-04-24T11:33:04.863Z,15.86
2023-04-24T11:35:38.229Z,15.94
2023-04-24T11:40:35.764Z,15.90
2023-04-24T11:43:02.870Z,16.11
2023-04-24T11:45:31.268Z,16.09
2023-04-24T11:47:58.344Z,16.20
2023-04-24T11:50:27.660Z,15.79
2023-04-24T11:52:54.290Z,15.67
2023-04-24T11:55:20.702Z,15.62
2023-04-24T11:57:49.060Z,15.52
2023-04-24T12:00:39.205Z,15.08
2023-04-24T12:03:08.851Z,14.64
2023-04-24T12:05:36.262Z,14.78
2023-04-24T12:08:03.166Z,14.63
2023-04-24T12:10:32.064Z,14.50
2023-04-24T12:12:59.838Z,14.36
2023-04-24T12:15:27.554Z,14.30
2023-04-24T12:17:57.260Z,14.40
2023-04-24T12:20:32.130Z,14.23
2023-04-24T12:23:00.347Z,14.00
2023-04-24T12:25:31.763Z,13.88
2023-04-24T12:28:04.380Z,13.89
2023-04-24T12:30:37.098Z,14.04
2023-04-24T12:33:04.596Z,14.06
2023-04-24T12:35:34.376Z,14.04
2023-04-24T12:38:09.153Z,14.03
2023-04-24T12:40:35.644Z,14.13
2023-04-24T12:43:02.113Z,14.31
2023-04-24T12:45:29.060Z,14.43
2023-04-24T12:47:55.627Z,14.44
2023-04-24T12:50:22.212Z,14.58
2023-04-24T12:52:48.684Z,14.53
2023-04-24T12:55:15.267Z,14.61
2023-04-24T12:57:41.821Z,14.67
2023-04-24T13:00:09.534Z,14.66
2023-04-24T13:02:36.439Z,14.62
2023-04-24T13:05:03.623Z,14.69
2023-04-24T13:07:30.275Z,14.84
2023-04-24T13:09:58.558Z,14.58
2023-04-24T13:12:25.716Z,14.74
2023-04-24T13:14:52.249Z,14.95
2023-04-24T13:17:18.681Z,15.15
2023-04-24T13:19:46.345Z,15.16
2023-04-24T13:22:13.977Z,15.14
2023-04-24T13:24:42.022Z,15.14
2023-04-24T13:27:09.526Z,15.17
2023-04-24T13:29:36.634Z,15.10
2023-04-24T13:32:03.043Z,15.33
2023-04-24T13:34:29.581Z,15.52
2023-04-24T13:36:57.822Z,15.40
2023-04-24T13:39:25.543Z,15.28
2023-04-24T13:41:51.984Z,15.52
2023-04-24T13:44:21.115Z,15.57
2023-04-24T13:46:50.760Z,15.69
2023-04-24T13:49:17.614Z,15.79
2023-04-24T13:51:44.449Z,15.89
2023-04-24T13:54:10.908Z,16.01
2023-04-24T13:56:37.384Z,16.12
2023-04-24T13:59:03.882Z,16.21
2023-04-24T14:01:30.362Z,16.33
2023-04-24T14:03:57.334Z,16.33
2023-04-24T14:06:24.281Z,16.33
2023-04-24T14:08:51.554Z,16.37
2023-04-24T14:11:18.991Z,16.39
2023-04-24T14:13:46.638Z,16.44
2023-04-24T14:16:14.029Z,16.52
2023-04-24T14:18:40.974Z,16.60
2023-04-24T14:21:08.472Z,16.80
2023-04-24T14:23:34.974Z,16.74
2023-04-24T14:26:01.523Z,16.79
2023-04-24T14:28:28.036Z,16.75
2023-04-24T14:30:54.678Z,16.61
2023-04-24T14:33:21.461Z,16.74
2023-04-24T14:35:48.607Z,16.86
2023-04-24T14:38:16.148Z,16.74
2023-04-24T14:43:12.806Z,16.52
2023-04-24T14:45:41.101Z,16.41
2023-04-24T14:48:09.101Z,16.45
2023-04-24T14:50:35.839Z,16.27
2023-04-24T14:53:03.129Z,16.28
2023-04-24T14:55:29.916Z,16.31
2023-04-24T14:57:56.548Z,16.32
2023-04-24T15:00:25.034Z,16.18
2023-04-24T15:02:51.788Z,16.22
2023-04-24T15:05:19.030Z,16.07
2023-04-24T15:07:46.341Z,16.20
2023-04-24T15:10:13.058Z,16.07
2023-04-24T15:12:39.678Z,16.13
2023-04-24T15:15:07.110Z,16.12
2023-04-24T15:17:33.756Z,16.18
2023-04-24T15:20:01.818Z,15.87
2023-04-24T15:22:28.480Z,16.17
2023-04-24T15:24:54.996Z,16.27
2023-04-24T15:27:21.589Z,16.13
2023-04-24T15:29:48.461Z,16.06
2023-04-24T15:32:14.925Z,16.11
2023-04-24T15:34:41.591Z,16.11
2023-04-24T15:37:08.154Z,16.26
2023-04-24T15:39:34.770Z,16.21
2023-04-24T15:42:01.584Z,16.10
2023-04-24T15:44:28.188Z,15.78
2023-04-24T15:46:56.191Z,16.07
2023-04-24T15:49:22.665Z,16.18
2023-04-24T15:51:49.069Z,15.96
2023-04-24T15:54:15.576Z,16.11
2023-04-24T15:56:42.034Z,16.07
2023-04-24T15:59:08.597Z,16.03
2023-04-24T16:01:35.167Z,15.95
2023-04-24T16:04:01.968Z,16.08
2023-04-24T16:06:28.882Z,16.17
2023-04-24T16:08:58.056Z,15.69
2023-04-24T16:11:26.285Z,15.51
2023-04-24T16:13:53.252Z,15.21
2023-04-24T16:16:19.775Z,14.94
2023-04-24T16:18:46.733Z,14.82
2023-04-24T16:21:13.717Z,14.40
2023-04-24T16:23:40.356Z,14.14
2023-04-24T16:26:06.815Z,14.17
2023-04-24T16:28:33.302Z,14.00
2023-04-24T16:30:59.806Z,13.68
2023-04-24T16:33:26.464Z,13.41
2023-04-24T16:35:53.093Z,13.47
2023-04-24T16:38:19.604Z,13.53
2023-04-24T16:40:46.184Z,13.66
2023-04-24T16:43:12.827Z,13.52
2023-04-24T16:45:39.458Z,13.26
2023-04-24T16:48:06.248Z,13.33
2023-04-24T16:50:32.848Z,13.40
2023-04-24T16:52:59.594Z,13.52
2023-04-24T16:55:26.346Z,13.22
2023-04-24T16:57:53.175Z,13.46
2023-04-24T17:00:19.895Z,13.50
2023-04-24T17:02:48.638Z,13.37
2023-04-24T17:05:15.648Z,13.19
2023-04-24T17:07:42.065Z,12.95
2023-04-24T17:10:11.680Z,13.17
2023-04-24T17:12:38.230Z,13.08
2023-04-24T17:15:05.324Z,13.22
2023-04-24T17:17:31.818Z,13.11
2023-04-24T17:19:59.821Z,13.05
2023-04-24T17:22:27.884Z,12.78
2023-04-24T17:24:54.382Z,12.86
2023-04-24T17:27:20.978Z,12.73
2023-04-24T17:29:49.701Z,12.62
2023-04-24T17:32:16.287Z,12.62
2023-04-24T17:34:42.895Z,12.67
2023-04-24T17:37:09.408Z,12.58
2023-04-24T17:39:36.037Z,12.49
2023-04-24T17:42:02.540Z,12.37
2023-04-24T17:44:29.129Z,12.18
2023-04-24T17:46:56.171Z,12.40
2023-04-24T17:49:23.326Z,11.98
2023-04-24T17:51:49.760Z,12.16
2023-04-24T17:54:18.147Z,12.07
2023-04-24T17:56:44.846Z,11.95
2023-04-24T17:59:11.325Z,12.04
2023-04-24T18:01:37.799Z,12.17
2023-04-24T18:04:04.427Z,11.98
2023-04-24T18:06:32.580Z,12.19
2023-04-24T18:08:59.118Z,12.11
2023-04-24T18:11:25.792Z,11.98
2023-04-24T18:13:52.260Z,12.07
2023-04-24T18:16:18.800Z,11.93
2023-04-24T18:18:45.820Z,11.67
2023-04-24T18:21:12.560Z,11.77
2023-04-24T18:23:39.021Z,11.55
2023-04-24T18:26:05.513Z,11.67
2023-04-24T18:28:34.635Z,11.63
2023-04-24T18:31:02.504Z,11.60
2023-04-24T18:33:29.132Z,11.52
2023-04-24T18:35:55.705Z,11.50
2023-04-24T18:38:22.179Z,11.40
2023-04-24T18:40:48.662Z,11.18
2023-04-24T18:43:15.130Z,11.31
2023-04-24T18:45:41.653Z,11.05
2023-04-24T18:48:08.397Z,11.08
2023-04-24T18:50:35.799Z,11.10
2023-04-24T18:53:02.729Z,11.06
2023-04-24T18:55:29.744Z,11.08
2023-04-24T18:57:56.174Z,11.04
2023-04-24T19:00:22.734Z,10.71
2023-04-24T19:02:49.450Z,10.90
2023-04-24T19:05:16.199Z,10.85
2023-04-24T19:07:42.847Z,10.78
2023-04-24T19:10:10.024Z,10.70
2023-04-24T19:12:36.660Z,10.78
2023-04-24T19:15:03.619Z,10.92
2023-04-24T19:17:31.704Z,11.02
2023-04-24T19:19:58.231Z,10.80
2023-04-24T19:22:24.859Z,10.84
2023-04-24T19:24:51.442Z,10.71
2023-04-24T19:27:17.926Z,10.52
2023-04-24T19:29:44.374Z,10.56
2023-04-24T19:32:11.017Z,10.57
2023-04-24T19:34:40.334Z,10.51
2023-04-24T19:37:07.251Z,10.67
2023-04-24T19:39:33.744Z,10.52
2023-04-24T19:42:03.114Z,10.66
2023-04-24T19:44:30.491Z,10.48
2023-04-24T19:46:56.976Z,10.43
2023-04-24T19:49:23.415Z,10.28
2023-04-24T19:51:49.909Z,10.20
2023-04-24T19:54:16.906Z,10.31
2023-04-24T19:56:43.355Z,10.30
2023-04-24T19:59:09.918Z,10.38
2023-04-24T20:01:36.444Z,10.24
2023-04-24T20:04:03.507Z,10.32
2023-04-24T20:06:30.060Z,10.33
2023-04-24T20:08:56.516Z,10.36
2023-04-24T20:11:23.026Z,10.36
2023-04-24T20:13:49.575Z,10.20
2023-04-24T20:16:16.119Z,10.30
2023-04-24T20:18:42.592Z,10.34
2023-04-24T20:21:09.462Z,10.35
2023-04-24T20:23:36.467Z,10.44
2023-04-24T20:26:05.011Z,10.18
2023-04-24T20:28:31.808Z,10.23
2023-04-24T20:30:59.480Z,10.34
2023-04-24T20:33:27.920Z,10.21
2023-04-24T20:35:54.448Z,10.23
2023-04-24T20:38:22.501Z,10.13
2023-04-24T20:43:18.815Z,10.29
2023-04-24T20:45:45.410Z,10.29
2023-04-24T20:48:12.739Z,10.23
2023-04-24T20:50:41.773Z,10.21
2023-04-24T20:53:09.301Z,10.44
2023-04-24T20:55:36.309Z,10.40
2023-04-24T20:58:03.334Z,10.34
2023-04-24T21:00:29.970Z,10.53
2023-04-24T21:02:56.577Z,10.54
2023-04-24T21:05:23.182Z,10.56
2023-04-24T21:07:51.740Z,10.64
2023-04-24T21:10:19.343Z,10.58
2023-04-24T21:12:45.786Z,10.60
2023-04-24T21:15:12.191Z,10.34
2023-04-24T21:17:39.398Z,10.47
2023-04-24T21:20:08.146Z,10.51
2023-04-24T21:22:35.868Z,10.45
2023-04-24T21:25:03.183Z,10.54
2023-04-24T21:27:29.889Z,10.57
2023-04-24T21:29:56.565Z,10.57
2023-04-24T21:32:23.155Z,10.49
2023-04-24T21:34:49.629Z,10.48
2023-04-24T21:37:16.151Z,10.59
2023-04-24T21:39:42.669Z,10.44
2023-04-24T21:42:09.694Z,10.49
2023-04-24T21:44:36.089Z,10.53
2023-04-24T21:47:02.501Z,10.57
2023-04-24T21:49:28.976Z,10.47
2023-04-24T21:51:55.342Z,10.48
2023-04-24T21:54:21.779Z,10.49
2023-04-24T21:56:48.376Z,10.57
2023-04-24T21:59:14.842Z,10.38
2023-04-24T22:01:41.680Z,10.31
2023-04-24T22:04:08.451Z,10.25
2023-04-24T22:06:35.085Z,10.28
2023-04-24T22:09:01.554Z,10.25
2023-04-24T22:11:27.971Z,10.33
2023-04-24T22:13:55.507Z,10.35
2023-04-24T22:16:26.862Z,10.51
2023-04-24T22:18:55.152Z,10.48
2023-04-24T22:21:22.573Z,10.54
2023-04-24T22:23:49.543Z,10.46
2023-04-24T22:26:16.236Z,10.48
2023-04-24T22:28:42.650Z,10.47
2023-04-24T22:31:09.482Z,10.47
2023-04-24T22:33:36.021Z,10.49
2023-04-24T22:36:02.603Z,10.16
2023-04-24T22:38:29.065Z,10.16
2023-04-24T22:40:55.586Z,10.24
2023-04-24T22:43:22.086Z,10.11
2023-04-24T22:45:48.547Z,10.05
2023-04-24T22:48:14.961Z,10.20
2023-04-24T22:50:42.297Z,10.30
2023-04-24T22:53:08.773Z,10.11
2023-04-24T22:55:35.477Z,10.31
2023-04-24T22:58:01.943Z,10.04
2023-04-24T23:00:28.501Z,10.20
2023-04-24T23:02:55.741Z,10.24
2023-04-24T23:05:22.567Z,10.33
2023-04-24T23:07:49.024Z,10.44
2023-04-24T23:10:15.536Z,10.46
2023-04-24T23:12:42.202Z,10.47
2023-04-24T23:15:11.006Z,10.50
2023-04-24T23:17:37.836Z,10.48
2023-04-24T23:20:05.015Z,10.54
2023-04-24T23:22:31.487Z,10.64
2023-04-24T23:24:57.988Z,10.67
2023-04-24T23:27:24.392Z,10.73
2023-04-24T23:29:50.772Z,10.67
2023-04-24T23:32:17.304Z,10.68
2023-04-24T23:34:43.728Z,10.63
2023-04-24T23:37:10.209Z,10.63
2023-04-24T23:39:36.730Z,10.57
2023-04-24T23:42:04.286Z,10.64
2023-04-24T23:44:30.992Z,10.70
2023-04-24T23:46:57.441Z,10.46
2023-04-24T23:49:24.004Z,10.61
2023-04-24T23:51:50.714Z,10.42
2023-04-24T23:54:17.144Z,10.55
2023-04-24T23:56:43.609Z,10.55
2023-04-24T23:59:10.121Z,10.55
